Terminal Aerodrome Forecast
Issued by NWS Jacksonville, FL

Home | Current Version | Previous Version | Text Only | Print | Product List | Glossary On
Versions: 1 2 3 4 5 6 7 8 9 10 11 12 13 14 15 16 17 18 19 20 21 22 23
893
FTUS42 KJAX 231652 AAC
TAFJAX
TAF AMD
KJAX 231652Z 2317/2412 05015G24KT P6SM VCSH SCT020 BKN035 OVC100
      TEMPO 2317/2319 BKN025
     FM240000 04008KT P6SM SCT020 BKN040=

USA.gov is the U.S. government's official web portal to all federal, state and local government web resources and services.